Mt New Conquest — V7GG4 — position and weather

sailwx.info

Track history (hours):
 
Tides and Currents Weather Stations Pressure Air Temp Water Temp Dewpoint Dewpoint Depression Visibility Wind Speed Wind Dir Waves Ship Positions

Mt New Conquest

Last reported at 2015-Jul-04 16:33 UTC. Time now 2015-Jul-06 15:40 UTC.
Position N 50°06' W 003°32'.

Length 228 m; draft 12.2 m.

Type: Tanker. MMSI: 538002089.

Date/timePositionNaut miles runAvg speedWind from/ knotsBaromVisibWave heightAir tempDewpointWater temp
2015-Jul-04 16:33N 50°06' W 003°32'1514.8
2015-Jul-04 15:33N 50°20' W 003°24'6 6.3
2015-Jul-04 14:33N 50°25' W 003°18'1514.7
2015-Jul-04 13:33N 50°25' W 002°55'1514.4
2015-Jul-04 12:30N 50°25' W 002°31'1213.0
2015-Jul-04 11:34N 50°26' W 002°12'1211.7
2015-Jul-04 10:34N 50°27' W 001°54'1211.1
2015-Jul-04 09:31N 50°27' W 001°36'1010.7
2015-Jul-04 08:34N 50°27' W 001°20'1110.8
2015-Jul-04 07:34N 50°28' W 001°03'1313.1
2015-Jul-04 06:33N 50°28' W 000°42'1515.0
2015-Jul-04 05:33N 50°30' W 000°18'1515.6
2015-Jul-04 04:33N 50°32' E 000°06'1615.6
2015-Jul-04 03:33N 50°36' E 000°29'1514.7
2015-Jul-04 02:33N 50°43' E 000°50'1713.2
2015-Jul-04 01:18N 50°52' E 001°12'911.6
2015-Jul-04 00:33N 50°57' E 001°23'1212.3
2015-Jul-03 23:33N 51°06' E 001°36'1414.3
2015-Jul-03 22:34N 51°18' E 001°50'1616.4
2015-Jul-03 21:33N 51°31' E 002°05'1616.5
2015-Jul-03 20:34N 51°44' E 002°22'1615.8
2015-Jul-03 19:33N 51°58' E 002°35'1514.7
2015-Jul-03 18:33N 52°12' E 002°41'1313.5
2015-Jul-03 17:33N 52°24' E 002°49'1313.1
2015-Jul-03 16:33N 52°36' E 002°59'1812.8
2015-Jul-03 15:09N 52°52' E 003°13'813.0
2015-Jul-03 14:33N 52°59' E 003°18'1413.8
2015-Jul-03 13:32N 53°12' E 003°25'1514.6
2015-Jul-03 12:32N 53°26' E 003°31'1514.8
2015-Jul-03 11:32N 53°40' E 003°39'4513.8
2015-Jul-03 08:17N 54°13' E 004°31'1013.7
2015-Jul-03 07:33N 54°22' E 004°40'25413.9
2015-Jul-02 13:17N 57°58' E 008°41'1014.6
2015-Jul-02 12:33N 58°05' E 008°54'1614.4
2015-Jul-02 11:26N 58°17' E 009°14'1314.2
2015-Jul-02 10:33N 58°27' E 009°29'1414.2
2015-Jul-02 09:33N 58°37' E 009°48'1515.2
2015-Jul-02 08:33N 58°48' E 010°09'1514.9
2015-Jul-02 07:33N 58°57' E 010°31'1111.1
2015-Jul-02 06:33N 59°08' E 010°37'1111.0
2015-Jul-02 05:33N 59°19' E 010°33'1 1.3
2015-Jul-02 04:32N 59°20' E 010°31'0 0.0
2015-Jul-02 03:32N 59°20' E 010°31'0 0.0
2015-Jul-02 02:32N 59°20' E 010°31'0 0.0
2015-Jul-02 01:32N 59°20' E 010°31'0 0.0
2015-Jul-02 00:29N 59°20' E 010°31'0 0.0
2015-Jul-01 23:32N 59°20' E 010°31'0 0.0
2015-Jul-01 22:32N 59°20' E 010°31'0 0.0
2015-Jul-01 21:32N 59°20' E 010°31'0 0.0
2015-Jul-01 20:32N 59°20' E 010°31'0 0.0
2015-Jul-01 19:32N 59°20' E 010°31'0 0.0
2015-Jul-01 18:32N 59°20' E 010°31'0 0.0
2015-Jul-01 17:32N 59°20' E 010°31'0 0.0
2015-Jul-01 16:29N 59°20' E 010°31'0 0.0
2015-Jul-01 15:32N 59°20' E 010°31'0 0.0
2015-Jul-01 14:32N 59°20' E 010°31'0 0.0
2015-Jul-01 13:32N 59°20' E 010°31'0 0.0
2015-Jul-01 12:32N 59°20' E 010°31'0 0.0
2015-Jul-01 11:32N 59°20' E 010°31'0 0.0
2015-Jul-01 10:32N 59°20' E 010°31'0 0.0
2015-Jul-01 09:32N 59°20' E 010°31'0 0.0
2015-Jul-01 08:29N 59°20' E 010°31'0 0.0
2015-Jul-01 07:32N 59°20' E 010°31'0 0.0
2015-Jul-01 06:32N 59°20' E 010°31'0 0.0
2015-Jul-01 05:32N 59°20' E 010°31'0 0.0
2015-Jul-01 04:32N 59°20' E 010°31'0 0.0
2015-Jul-01 03:32N 59°20' E 010°31'0 0.0
2015-Jul-01 02:32N 59°20' E 010°31'0 0.0
2015-Jul-01 01:32N 59°20' E 010°31'0 0.0
2015-Jul-01 00:32N 59°20' E 010°31'0 0.0
2015-Jun-30 23:33N 59°20' E 010°31'0 0.0
2015-Jun-30 22:33N 59°20' E 010°31'0 0.0
2015-Jun-30 21:33N 59°20' E 010°31'0 0.0
2015-Jun-30 20:33N 59°20' E 010°31'0 0.0
2015-Jun-30 19:33N 59°20' E 010°31'0 0.0
2015-Jun-30 18:33N 59°20' E 010°31'0 0.0
2015-Jun-30 17:33N 59°20' E 010°31'1 0.6
2015-Jun-30 16:32N 59°20' E 010°31'0 0.0
2015-Jun-30 15:32N 59°20' E 010°31'0 0.2
2015-Jun-30 14:32N 59°20' E 010°31'0 0.0
2015-Jun-30 13:32N 59°20' E 010°31'0 0.0
2015-Jun-30 12:32N 59°20' E 010°31'0 0.0
2015-Jun-30 11:32N 59°20' E 010°31'0 0.0
2015-Jun-30 10:32N 59°20' E 010°31'0 0.1
2015-Jun-30 09:32N 59°20' E 010°31'0 0.0
2015-Jun-30 08:32N 59°20' E 010°31'0 0.0
2015-Jun-30 07:32N 59°20' E 010°31'0 0.0
2015-Jun-30 06:32N 59°20' E 010°31'0 0.0
2015-Jun-30 05:32N 59°20' E 010°31'0 0.0
2015-Jun-30 04:32N 59°20' E 010°31'0 0.0
2015-Jun-30 03:32N 59°20' E 010°31'0 0.0
2015-Jun-30 02:32N 59°20' E 010°31'0 0.0
2015-Jun-30 01:32N 59°20' E 010°31'1 0.6
2015-Jun-30 00:33N 59°20' E 010°32'9 8.7
2015-Jun-29 23:33N 59°12' E 010°39'8 8.3
2015-Jun-29 22:33N 59°04' E 010°35'7 7.0
2015-Jun-29 21:33N 58°57' E 010°34'7 7.2
2015-Jun-29 20:33N 58°49' E 010°34'6 6.5
2015-Jun-29 19:33N 58°43' E 010°33'10 9.6
2015-Jun-29 18:33N 58°33' E 010°33'1714.5
2015-Jun-29 17:22N 58°16' E 010°37'1414.4
2015-Jun-29 16:24N 58°02' E 010°42'1213.9
2015-Jun-29 15:33N 57°51' E 010°45'1210.2
2015-Jun-29 14:25N 57°49' E 010°24'27214.9
2015-Jun-28 20:07N 54°26' E 004°57'915.7
2015-Jun-28 19:33N 54°18' E 004°50'1615.6
2015-Jun-28 18:33N 54°04' E 004°40'1615.6
2015-Jun-28 17:33N 53°50' E 004°28'1616.1
2015-Jun-28 16:33N 53°40' E 004°07'1616.3
2015-Jun-28 15:34N 53°30' E 003°46'1616.4
2015-Jun-28 14:33N 53°15' E 003°35'1716.7
2015-Jun-28 13:33N 52°59' E 003°24'1716.7
2015-Jun-28 12:33N 52°45' E 003°11'1717.0
2015-Jun-28 11:33N 52°30' E 002°57'1717.1
2015-Jun-28 10:33N 52°15' E 002°43'1716.7
2015-Jun-28 09:34N 51°58' E 002°41'1616.0
2015-Jun-28 08:33N 51°43' E 002°33'1616.3
2015-Jun-28 07:33N 51°30' E 002°17'1514.5
2015-Jun-28 06:34N 51°17' E 002°07'1514.6
2015-Jun-28 05:33N 51°08' E 001°49'1514.5
2015-Jun-28 04:34N 50°58' E 001°32'1414.2
2015-Jun-28 03:33N 50°45' E 001°24'1514.3
2015-Jun-28 02:32N 50°35' E 001°07'1514.7
2015-Jun-28 01:32N 50°28' E 000°46'1414.8
2015-Jun-28 00:33N 50°23' E 000°25'1514.5
2015-Jun-27 23:33N 50°18' E 000°03'1414.4
2015-Jun-27 22:33N 50°14' W 000°18'1414.2
2015-Jun-27 21:33N 50°11' W 000°40'1414.5
2015-Jun-27 20:33N 50°08' W 001°02'1515.2
2015-Jun-27 19:34N 50°04' W 001°25'1616.2
2015-Jun-27 18:34N 49°60' W 001°49'1717.1
2015-Jun-27 17:33N 49°56' W 002°15'11316.2
2015-Jun-27 10:32N 49°42' W 005°10'6911.5
2015-Jun-27 04:30N 50°48' W 005°44'  
Track history (hours):
 
Tides and Currents Weather Stations Pressure Air Temp Water Temp Dewpoint Dewpoint Depression Visibility Wind Speed Wind Dir Waves Ship Positions

Mt New Conquest

Last reported at 2015-Jul-04 16:33 UTC. Time now 2015-Jul-06 15:40 UTC.
Position N 50°06' W 003°32'.

Length 228 m; draft 12.2 m.

Type: Tanker. MMSI: 538002089.

Date/timePositionNaut miles runAvg speedWind from/ knotsBaromVisibWave heightAir tempDewpointWater temp
2015-Jul-04 16:33N 50°06' W 003°32'1514.8
2015-Jul-04 15:33N 50°20' W 003°24'6 6.3
2015-Jul-04 14:33N 50°25' W 003°18'1514.7
2015-Jul-04 13:33N 50°25' W 002°55'1514.4
2015-Jul-04 12:30N 50°25' W 002°31'1213.0
2015-Jul-04 11:34N 50°26' W 002°12'1211.7
2015-Jul-04 10:34N 50°27' W 001°54'1211.1
2015-Jul-04 09:31N 50°27' W 001°36'1010.7
2015-Jul-04 08:34N 50°27' W 001°20'1110.8
2015-Jul-04 07:34N 50°28' W 001°03'1313.1
2015-Jul-04 06:33N 50°28' W 000°42'1515.0
2015-Jul-04 05:33N 50°30' W 000°18'1515.6
2015-Jul-04 04:33N 50°32' E 000°06'1615.6
2015-Jul-04 03:33N 50°36' E 000°29'1514.7
2015-Jul-04 02:33N 50°43' E 000°50'1713.2
2015-Jul-04 01:18N 50°52' E 001°12'911.6
2015-Jul-04 00:33N 50°57' E 001°23'1212.3
2015-Jul-03 23:33N 51°06' E 001°36'1414.3
2015-Jul-03 22:34N 51°18' E 001°50'1616.4
2015-Jul-03 21:33N 51°31' E 002°05'1616.5
2015-Jul-03 20:34N 51°44' E 002°22'1615.8
2015-Jul-03 19:33N 51°58' E 002°35'1514.7
2015-Jul-03 18:33N 52°12' E 002°41'1313.5
2015-Jul-03 17:33N 52°24' E 002°49'1313.1
2015-Jul-03 16:33N 52°36' E 002°59'1812.8
2015-Jul-03 15:09N 52°52' E 003°13'813.0
2015-Jul-03 14:33N 52°59' E 003°18'1413.8
2015-Jul-03 13:32N 53°12' E 003°25'1514.6
2015-Jul-03 12:32N 53°26' E 003°31'1514.8
2015-Jul-03 11:32N 53°40' E 003°39'4513.8
2015-Jul-03 08:17N 54°13' E 004°31'1013.7
2015-Jul-03 07:33N 54°22' E 004°40'25413.9
2015-Jul-02 13:17N 57°58' E 008°41'1014.6
2015-Jul-02 12:33N 58°05' E 008°54'1614.4
2015-Jul-02 11:26N 58°17' E 009°14'1314.2
2015-Jul-02 10:33N 58°27' E 009°29'1414.2
2015-Jul-02 09:33N 58°37' E 009°48'1515.2
2015-Jul-02 08:33N 58°48' E 010°09'1514.9
2015-Jul-02 07:33N 58°57' E 010°31'1111.1
2015-Jul-02 06:33N 59°08' E 010°37'1111.0
2015-Jul-02 05:33N 59°19' E 010°33'1 1.3
2015-Jul-02 04:32N 59°20' E 010°31'0 0.0
2015-Jul-02 03:32N 59°20' E 010°31'0 0.0
2015-Jul-02 02:32N 59°20' E 010°31'0 0.0
2015-Jul-02 01:32N 59°20' E 010°31'0 0.0
2015-Jul-02 00:29N 59°20' E 010°31'0 0.0
2015-Jul-01 23:32N 59°20' E 010°31'0 0.0
2015-Jul-01 22:32N 59°20' E 010°31'0 0.0
2015-Jul-01 21:32N 59°20' E 010°31'0 0.0
2015-Jul-01 20:32N 59°20' E 010°31'0 0.0
2015-Jul-01 19:32N 59°20' E 010°31'0 0.0
2015-Jul-01 18:32N 59°20' E 010°31'0 0.0
2015-Jul-01 17:32N 59°20' E 010°31'0 0.0
2015-Jul-01 16:29N 59°20' E 010°31'0 0.0
2015-Jul-01 15:32N 59°20' E 010°31'0 0.0
2015-Jul-01 14:32N 59°20' E 010°31'0 0.0
2015-Jul-01 13:32N 59°20' E 010°31'0 0.0
2015-Jul-01 12:32N 59°20' E 010°31'0 0.0
2015-Jul-01 11:32N 59°20' E 010°31'0 0.0
2015-Jul-01 10:32N 59°20' E 010°31'0 0.0
2015-Jul-01 09:32N 59°20' E 010°31'0 0.0
2015-Jul-01 08:29N 59°20' E 010°31'0 0.0
2015-Jul-01 07:32N 59°20' E 010°31'0 0.0
2015-Jul-01 06:32N 59°20' E 010°31'0 0.0
2015-Jul-01 05:32N 59°20' E 010°31'0 0.0
2015-Jul-01 04:32N 59°20' E 010°31'0 0.0
2015-Jul-01 03:32N 59°20' E 010°31'0 0.0
2015-Jul-01 02:32N 59°20' E 010°31'0 0.0
2015-Jul-01 01:32N 59°20' E 010°31'0 0.0
2015-Jul-01 00:32N 59°20' E 010°31'0 0.0
2015-Jun-30 23:33N 59°20' E 010°31'0 0.0
2015-Jun-30 22:33N 59°20' E 010°31'0 0.0
2015-Jun-30 21:33N 59°20' E 010°31'0 0.0
2015-Jun-30 20:33N 59°20' E 010°31'0 0.0
2015-Jun-30 19:33N 59°20' E 010°31'0 0.0
2015-Jun-30 18:33N 59°20' E 010°31'0 0.0
2015-Jun-30 17:33N 59°20' E 010°31'1 0.6
2015-Jun-30 16:32N 59°20' E 010°31'0 0.0
2015-Jun-30 15:32N 59°20' E 010°31'0 0.2
2015-Jun-30 14:32N 59°20' E 010°31'0 0.0
2015-Jun-30 13:32N 59°20' E 010°31'0 0.0
2015-Jun-30 12:32N 59°20' E 010°31'0 0.0
2015-Jun-30 11:32N 59°20' E 010°31'0 0.0
2015-Jun-30 10:32N 59°20' E 010°31'0 0.1
2015-Jun-30 09:32N 59°20' E 010°31'0 0.0
2015-Jun-30 08:32N 59°20' E 010°31'0 0.0
2015-Jun-30 07:32N 59°20' E 010°31'0 0.0
2015-Jun-30 06:32N 59°20' E 010°31'0 0.0
2015-Jun-30 05:32N 59°20' E 010°31'0 0.0
2015-Jun-30 04:32N 59°20' E 010°31'0 0.0
2015-Jun-30 03:32N 59°20' E 010°31'0 0.0
2015-Jun-30 02:32N 59°20' E 010°31'0 0.0
2015-Jun-30 01:32N 59°20' E 010°31'1 0.6
2015-Jun-30 00:33N 59°20' E 010°32'9 8.7
2015-Jun-29 23:33N 59°12' E 010°39'8 8.3
2015-Jun-29 22:33N 59°04' E 010°35'7 7.0
2015-Jun-29 21:33N 58°57' E 010°34'7 7.2
2015-Jun-29 20:33N 58°49' E 010°34'6 6.5
2015-Jun-29 19:33N 58°43' E 010°33'10 9.6
2015-Jun-29 18:33N 58°33' E 010°33'1714.5
2015-Jun-29 17:22N 58°16' E 010°37'1414.4
2015-Jun-29 16:24N 58°02' E 010°42'1213.9
2015-Jun-29 15:33N 57°51' E 010°45'1210.2
2015-Jun-29 14:25N 57°49' E 010°24'27214.9
2015-Jun-28 20:07N 54°26' E 004°57'915.7
2015-Jun-28 19:33N 54°18' E 004°50'1615.6
2015-Jun-28 18:33N 54°04' E 004°40'1615.6
2015-Jun-28 17:33N 53°50' E 004°28'1616.1
2015-Jun-28 16:33N 53°40' E 004°07'1616.3
2015-Jun-28 15:34N 53°30' E 003°46'1616.4
2015-Jun-28 14:33N 53°15' E 003°35'1716.7
2015-Jun-28 13:33N 52°59' E 003°24'1716.7
2015-Jun-28 12:33N 52°45' E 003°11'1717.0
2015-Jun-28 11:33N 52°30' E 002°57'1717.1
2015-Jun-28 10:33N 52°15' E 002°43'1716.7
2015-Jun-28 09:34N 51°58' E 002°41'1616.0
2015-Jun-28 08:33N 51°43' E 002°33'1616.3
2015-Jun-28 07:33N 51°30' E 002°17'1514.5
2015-Jun-28 06:34N 51°17' E 002°07'1514.6
2015-Jun-28 05:33N 51°08' E 001°49'1514.5
2015-Jun-28 04:34N 50°58' E 001°32'1414.2
2015-Jun-28 03:33N 50°45' E 001°24'1514.3
2015-Jun-28 02:32N 50°35' E 001°07'1514.7
2015-Jun-28 01:32N 50°28' E 000°46'1414.8
2015-Jun-28 00:33N 50°23' E 000°25'1514.5
2015-Jun-27 23:33N 50°18' E 000°03'1414.4
2015-Jun-27 22:33N 50°14' W 000°18'1414.2
2015-Jun-27 21:33N 50°11' W 000°40'1414.5
2015-Jun-27 20:33N 50°08' W 001°02'1515.2
2015-Jun-27 19:34N 50°04' W 001°25'1616.2
2015-Jun-27 18:34N 49°60' W 001°49'1717.1
2015-Jun-27 17:33N 49°56' W 002°15'11316.2
2015-Jun-27 10:32N 49°42' W 005°10'6911.5
2015-Jun-27 04:30N 50°48' W 005°44'  

Dump ship's entire track history